createdAt,value
2022-09-27T00:08:56.446Z,10.82
2022-09-27T00:19:25.878Z,10.78
2022-09-27T00:29:53.809Z,10.69
2022-09-27T00:40:24.370Z,10.52
2022-09-27T00:50:56.035Z,10.51
2022-09-27T01:01:24.039Z,10.54
2022-09-27T01:11:59.565Z,10.65
2022-09-27T01:22:37.040Z,10.66
2022-09-27T01:33:21.205Z,10.69
2022-09-27T01:43:56.486Z,10.67
2022-09-27T01:54:30.059Z,10.56
2022-09-27T02:05:01.378Z,10.51
2022-09-27T02:15:31.769Z,10.38
2022-09-27T02:26:03.023Z,10.32
2022-09-27T02:36:31.552Z,10.23
2022-09-27T02:47:14.654Z,10.04
2022-09-27T02:57:52.855Z,10.04
2022-09-27T03:08:21.714Z,10.09
2022-09-27T03:18:49.549Z,10.14
2022-09-27T03:29:17.488Z,10.15
2022-09-27T03:39:45.334Z,10.17
2022-09-27T03:50:14.518Z,10.19
2022-09-27T04:00:44.192Z,10.09
2022-09-27T04:11:12.028Z,10.11
2022-09-27T04:21:39.916Z,10.22
2022-09-27T04:32:07.934Z,10.14
2022-09-27T04:42:35.787Z,10.06
2022-09-27T04:53:03.594Z,10.16
2022-09-27T05:03:31.608Z,10.19
2022-09-27T05:13:59.556Z,9.99
2022-09-27T05:24:28.276Z,10.23
2022-09-27T05:34:56.510Z,10.46
2022-09-27T05:45:25.624Z,10.50
2022-09-27T05:55:53.568Z,10.44
2022-09-27T06:16:47.627Z,10.77
2022-09-27T06:27:12.298Z,10.74
2022-09-27T06:44:15.000Z,11.09
2022-09-27T06:56:21.034Z,11.22
2022-09-27T07:06:46.162Z,11.35
2022-09-27T07:17:13.054Z,11.57
2022-09-27T07:27:38.725Z,11.84
2022-09-27T07:38:04.672Z,12.09
2022-09-27T07:48:29.303Z,12.20
2022-09-27T07:58:54.391Z,12.37
2022-09-27T08:09:19.306Z,12.64
2022-09-27T08:19:44.641Z,12.82
2022-09-27T08:30:10.915Z,13.04
2022-09-27T08:40:53.914Z,13.15
2022-09-27T08:51:26.667Z,13.31
2022-09-27T09:01:54.185Z,13.48
2022-09-27T09:12:47.899Z,13.68
2022-09-27T09:23:35.826Z,13.97
2022-09-27T09:34:09.604Z,14.26
2022-09-27T09:44:41.282Z,14.50
2022-09-27T09:55:14.058Z,14.67
2022-09-27T10:05:41.694Z,14.82
2022-09-27T10:16:10.120Z,15.02
2022-09-27T10:26:35.268Z,15.25
2022-09-27T10:37:16.787Z,15.43
2022-09-27T10:47:41.562Z,15.62
2022-09-27T10:58:07.048Z,15.78
2022-09-27T11:08:33.386Z,15.88
2022-09-27T11:19:15.130Z,15.92
2022-09-27T11:29:51.987Z,15.95
2022-09-27T11:40:30.770Z,16.02
2022-09-27T11:51:08.744Z,16.06
2022-09-27T12:01:40.174Z,16.12
2022-09-27T12:12:10.097Z,16.01
2022-09-27T12:22:58.204Z,15.84
2022-09-27T12:33:32.966Z,15.60
2022-09-27T12:43:57.774Z,15.45
2022-09-27T12:54:38.898Z,15.32
2022-09-27T13:05:33.082Z,15.20
2022-09-27T13:16:00.777Z,15.07
2022-09-27T13:26:44.853Z,14.96
2022-09-27T13:37:47.596Z,14.95
2022-09-27T13:48:21.822Z,14.81
2022-09-27T13:58:54.621Z,14.66
2022-09-27T14:09:21.777Z,14.37
2022-09-27T14:19:48.809Z,13.87
2022-09-27T14:30:17.370Z,13.58
2022-09-27T14:40:44.167Z,13.39
2022-09-27T14:51:20.422Z,13.31
2022-09-27T15:01:50.208Z,13.35
2022-09-27T15:12:22.433Z,13.41
2022-09-27T15:22:48.385Z,13.42
2022-09-27T15:33:21.133Z,13.36
2022-09-27T15:43:47.467Z,13.26
2022-09-27T15:54:12.386Z,13.15
2022-09-27T16:04:37.175Z,12.97
2022-09-27T16:15:01.834Z,12.77
2022-09-27T16:25:26.662Z,12.66
2022-09-27T16:35:52.342Z,12.57
2022-09-27T16:46:18.859Z,12.43
2022-09-27T16:56:44.487Z,12.34
2022-09-27T17:07:09.205Z,12.42
2022-09-27T17:17:33.960Z,12.49
2022-09-27T17:27:59.024Z,12.52
2022-09-27T17:38:23.737Z,12.80
2022-09-27T17:49:07.911Z,12.95
2022-09-27T17:59:32.797Z,13.07
2022-09-27T18:09:58.880Z,13.06
2022-09-27T18:20:24.498Z,12.96
2022-09-27T18:41:34.216Z,12.49
2022-09-27T18:51:59.180Z,12.27
2022-09-27T19:02:24.252Z,12.09
2022-09-27T19:12:49.164Z,11.97
2022-09-27T19:23:14.025Z,11.93
2022-09-27T19:33:40.004Z,11.99
2022-09-27T19:44:06.277Z,12.06
2022-09-27T19:54:31.043Z,12.06
2022-09-27T20:04:55.585Z,12.10
2022-09-27T20:15:21.064Z,12.23
2022-09-27T20:25:45.709Z,12.29
2022-09-27T20:36:11.918Z,12.44
2022-09-27T20:46:38.079Z,12.18
2022-09-27T20:57:02.787Z,12.12
2022-09-27T21:07:27.925Z,11.95
2022-09-27T21:17:52.581Z,11.99
2022-09-27T21:28:17.626Z,12.02
2022-09-27T21:38:42.304Z,12.13
2022-09-27T21:49:07.086Z,12.34
2022-09-27T21:59:31.686Z,12.56
2022-09-27T22:09:56.352Z,12.66
2022-09-27T22:20:20.975Z,12.84
2022-09-27T22:30:45.598Z,12.93
2022-09-27T22:41:11.562Z,12.76
2022-09-27T22:51:36.194Z,12.29
2022-09-27T23:02:00.782Z,12.08
2022-09-27T23:12:25.372Z,12.29
2022-09-27T23:22:50.315Z,12.58
2022-09-27T23:33:15.214Z,12.78
2022-09-27T23:43:39.834Z,12.82
2022-09-27T23:54:04.465Z,12.59
